sensor_id;sensor_type;location;lat;lon;timestamp;P1;durP1;ratioP1;P2;durP2;ratioP2
45236;SDS011;30973;51.442;3.580;2024-01-25T00:02:30;31.63;;;6.90;;
45236;SDS011;30973;51.442;3.580;2024-01-25T00:04:57;33.00;;;7.55;;
45236;SDS011;30973;51.442;3.580;2024-01-25T00:07:26;29.83;;;6.70;;
45236;SDS011;30973;51.442;3.580;2024-01-25T00:09:53;36.50;;;8.23;;
45236;SDS011;30973;51.442;3.580;2024-01-25T00:12:20;24.83;;;6.60;;
45236;SDS011;30973;51.442;3.580;2024-01-25T00:14:48;33.42;;;6.80;;
45236;SDS011;30973;51.442;3.580;2024-01-25T00:17:16;35.63;;;8.30;;
45236;SDS011;30973;51.442;3.580;2024-01-25T00:19:43;31.20;;;6.47;;
45236;SDS011;30973;51.442;3.580;2024-01-25T00:22:11;28.65;;;6.10;;
45236;SDS011;30973;51.442;3.580;2024-01-25T00:24:39;28.92;;;7.57;;
45236;SDS011;30973;51.442;3.580;2024-01-25T00:27:06;30.58;;;7.60;;
45236;SDS011;30973;51.442;3.580;2024-01-25T00:29:34;29.30;;;6.43;;
45236;SDS011;30973;51.442;3.580;2024-01-25T00:32:03;25.23;;;6.60;;
45236;SDS011;30973;51.442;3.580;2024-01-25T00:34:33;25.50;;;8.70;;
45236;SDS011;30973;51.442;3.580;2024-01-25T00:37:01;31.70;;;7.15;;
45236;SDS011;30973;51.442;3.580;2024-01-25T00:39:29;29.13;;;6.47;;
45236;SDS011;30973;51.442;3.580;2024-01-25T00:41:58;33.83;;;7.43;;
45236;SDS011;30973;51.442;3.580;2024-01-25T00:44:28;29.38;;;7.47;;
45236;SDS011;30973;51.442;3.580;2024-01-25T00:46:55;35.88;;;7.22;;
45236;SDS011;30973;51.442;3.580;2024-01-25T00:49:23;29.92;;;6.78;;
45236;SDS011;30973;51.442;3.580;2024-01-25T00:51:53;30.88;;;7.38;;
45236;SDS011;30973;51.442;3.580;2024-01-25T00:54:22;32.47;;;7.13;;
45236;SDS011;30973;51.442;3.580;2024-01-25T00:56:50;28.02;;;6.22;;
45236;SDS011;30973;51.442;3.580;2024-01-25T00:59:19;28.83;;;6.82;;
45236;SDS011;30973;51.442;3.580;2024-01-25T01:01:47;21.50;;;5.50;;
45236;SDS011;30973;51.442;3.580;2024-01-25T01:04:16;23.00;;;5.90;;
45236;SDS011;30973;51.442;3.580;2024-01-25T01:06:43;30.08;;;6.53;;
45236;SDS011;30973;51.442;3.580;2024-01-25T01:09:11;26.27;;;5.50;;
45236;SDS011;30973;51.442;3.580;2024-01-25T01:11:39;22.85;;;5.70;;
45236;SDS011;30973;51.442;3.580;2024-01-25T01:14:06;23.10;;;6.18;;
45236;SDS011;30973;51.442;3.580;2024-01-25T01:16:34;28.23;;;6.50;;
45236;SDS011;30973;51.442;3.580;2024-01-25T01:19:02;27.85;;;6.78;;
45236;SDS011;30973;51.442;3.580;2024-01-25T01:21:34;29.65;;;6.57;;
45236;SDS011;30973;51.442;3.580;2024-01-25T01:24:02;31.05;;;7.55;;
45236;SDS011;30973;51.442;3.580;2024-01-25T01:26:30;27.63;;;6.35;;
45236;SDS011;30973;51.442;3.580;2024-01-25T01:28:57;34.08;;;7.45;;
45236;SDS011;30973;51.442;3.580;2024-01-25T01:31:25;36.03;;;6.43;;
45236;SDS011;30973;51.442;3.580;2024-01-25T01:33:57;29.23;;;6.97;;
45236;SDS011;30973;51.442;3.580;2024-01-25T01:36:28;27.33;;;6.35;;
45236;SDS011;30973;51.442;3.580;2024-01-25T01:38:55;25.77;;;6.35;;
45236;SDS011;30973;51.442;3.580;2024-01-25T01:41:23;21.90;;;6.25;;
45236;SDS011;30973;51.442;3.580;2024-01-25T01:43:53;30.17;;;5.82;;
45236;SDS011;30973;51.442;3.580;2024-01-25T01:46:33;26.00;;;5.28;;
45236;SDS011;30973;51.442;3.580;2024-01-25T01:49:04;27.90;;;6.60;;
45236;SDS011;30973;51.442;3.580;2024-01-25T01:51:33;31.30;;;6.78;;
45236;SDS011;30973;51.442;3.580;2024-01-25T01:54:01;24.65;;;6.25;;
45236;SDS011;30973;51.442;3.580;2024-01-25T01:56:32;26.30;;;5.57;;
45236;SDS011;30973;51.442;3.580;2024-01-25T01:59:04;24.92;;;6.38;;
45236;SDS011;30973;51.442;3.580;2024-01-25T02:01:32;30.55;;;6.50;;
45236;SDS011;30973;51.442;3.580;2024-01-25T02:04:00;22.58;;;6.18;;
45236;SDS011;30973;51.442;3.580;2024-01-25T02:06:27;27.17;;;6.20;;
45236;SDS011;30973;51.442;3.580;2024-01-25T02:08:55;24.58;;;6.07;;
45236;SDS011;30973;51.442;3.580;2024-01-25T02:11:25;20.98;;;5.82;;
45236;SDS011;30973;51.442;3.580;2024-01-25T02:13:52;27.27;;;5.80;;
45236;SDS011;30973;51.442;3.580;2024-01-25T02:16:20;25.40;;;6.75;;
45236;SDS011;30973;51.442;3.580;2024-01-25T02:18:51;29.00;;;6.53;;
45236;SDS011;30973;51.442;3.580;2024-01-25T02:21:21;20.75;;;5.50;;
45236;SDS011;30973;51.442;3.580;2024-01-25T02:23:49;22.23;;;5.88;;
45236;SDS011;30973;51.442;3.580;2024-01-25T02:26:17;31.40;;;5.85;;
45236;SDS011;30973;51.442;3.580;2024-01-25T02:28:44;26.98;;;6.00;;
45236;SDS011;30973;51.442;3.580;2024-01-25T02:31:12;24.98;;;6.80;;
45236;SDS011;30973;51.442;3.580;2024-01-25T02:33:39;19.98;;;5.47;;
45236;SDS011;30973;51.442;3.580;2024-01-25T02:36:07;23.35;;;6.40;;
45236;SDS011;30973;51.442;3.580;2024-01-25T02:38:34;22.95;;;6.47;;
45236;SDS011;30973;51.442;3.580;2024-01-25T02:41:02;27.27;;;7.38;;
45236;SDS011;30973;51.442;3.580;2024-01-25T02:43:31;19.10;;;6.28;;
45236;SDS011;30973;51.442;3.580;2024-01-25T02:45:59;21.42;;;6.90;;
45236;SDS011;30973;51.442;3.580;2024-01-25T02:48:26;23.25;;;6.00;;
45236;SDS011;30973;51.442;3.580;2024-01-25T02:50:54;24.33;;;6.00;;
45236;SDS011;30973;51.442;3.580;2024-01-25T02:53:21;27.90;;;6.40;;
45236;SDS011;30973;51.442;3.580;2024-01-25T02:55:49;24.40;;;6.40;;
45236;SDS011;30973;51.442;3.580;2024-01-25T02:58:17;18.17;;;5.50;;
45236;SDS011;30973;51.442;3.580;2024-01-25T03:00:44;29.05;;;6.70;;
45236;SDS011;30973;51.442;3.580;2024-01-25T03:03:12;24.48;;;6.63;;
45236;SDS011;30973;51.442;3.580;2024-01-25T03:05:40;21.38;;;5.40;;
45236;SDS011;30973;51.442;3.580;2024-01-25T03:08:07;29.48;;;6.55;;
45236;SDS011;30973;51.442;3.580;2024-01-25T03:10:35;28.00;;;5.95;;
45236;SDS011;30973;51.442;3.580;2024-01-25T03:13:03;24.08;;;6.25;;
45236;SDS011;30973;51.442;3.580;2024-01-25T03:15:30;25.58;;;5.88;;
45236;SDS011;30973;51.442;3.580;2024-01-25T03:17:59;30.75;;;6.88;;
45236;SDS011;30973;51.442;3.580;2024-01-25T03:20:26;25.65;;;6.63;;
45236;SDS011;30973;51.442;3.580;2024-01-25T03:22:54;24.55;;;6.00;;
45236;SDS011;30973;51.442;3.580;2024-01-25T03:25:22;27.88;;;5.72;;
45236;SDS011;30973;51.442;3.580;2024-01-25T03:27:49;25.90;;;5.55;;
45236;SDS011;30973;51.442;3.580;2024-01-25T03:30:17;22.58;;;6.10;;
45236;SDS011;30973;51.442;3.580;2024-01-25T03:32:45;18.08;;;6.13;;
45236;SDS011;30973;51.442;3.580;2024-01-25T03:35:13;21.20;;;5.60;;
45236;SDS011;30973;51.442;3.580;2024-01-25T03:37:41;29.55;;;6.15;;
45236;SDS011;30973;51.442;3.580;2024-01-25T03:40:08;21.90;;;6.20;;
45236;SDS011;30973;51.442;3.580;2024-01-25T03:42:36;24.77;;;6.35;;
45236;SDS011;30973;51.442;3.580;2024-01-25T03:45:04;22.55;;;5.90;;
45236;SDS011;30973;51.442;3.580;2024-01-25T03:47:31;25.85;;;5.65;;
45236;SDS011;30973;51.442;3.580;2024-01-25T03:50:01;21.27;;;5.78;;
45236;SDS011;30973;51.442;3.580;2024-01-25T03:52:29;20.10;;;5.57;;
45236;SDS011;30973;51.442;3.580;2024-01-25T03:54:57;22.60;;;5.88;;
45236;SDS011;30973;51.442;3.580;2024-01-25T03:57:25;27.88;;;5.93;;
45236;SDS011;30973;51.442;3.580;2024-01-25T03:59:52;22.58;;;6.72;;
45236;SDS011;30973;51.442;3.580;2024-01-25T04:02:19;24.50;;;5.75;;
45236;SDS011;30973;51.442;3.580;2024-01-25T04:04:47;25.83;;;5.90;;
45236;SDS011;30973;51.442;3.580;2024-01-25T04:07:19;24.65;;;5.85;;
45236;SDS011;30973;51.442;3.580;2024-01-25T04:09:46;26.92;;;7.82;;
45236;SDS011;30973;51.442;3.580;2024-01-25T04:12:14;29.30;;;7.20;;
45236;SDS011;30973;51.442;3.580;2024-01-25T04:14:41;28.17;;;5.60;;
45236;SDS011;30973;51.442;3.580;2024-01-25T04:17:08;31.05;;;6.45;;
45236;SDS011;30973;51.442;3.580;2024-01-25T04:19:36;30.42;;;6.47;;
45236;SDS011;30973;51.442;3.580;2024-01-25T04:22:04;25.02;;;6.07;;
45236;SDS011;30973;51.442;3.580;2024-01-25T04:24:31;24.77;;;5.75;;
45236;SDS011;30973;51.442;3.580;2024-01-25T04:27:00;21.42;;;5.53;;
45236;SDS011;30973;51.442;3.580;2024-01-25T04:29:30;27.58;;;5.90;;
45236;SDS011;30973;51.442;3.580;2024-01-25T04:32:00;19.65;;;5.20;;
45236;SDS011;30973;51.442;3.580;2024-01-25T04:34:28;25.02;;;5.85;;
45236;SDS011;30973;51.442;3.580;2024-01-25T04:36:55;27.80;;;6.75;;
45236;SDS011;30973;51.442;3.580;2024-01-25T04:39:23;27.88;;;6.00;;
45236;SDS011;30973;51.442;3.580;2024-01-25T04:41:51;20.88;;;5.22;;
45236;SDS011;30973;51.442;3.580;2024-01-25T04:44:18;20.63;;;4.80;;
45236;SDS011;30973;51.442;3.580;2024-01-25T04:46:45;23.00;;;6.20;;
45236;SDS011;30973;51.442;3.580;2024-01-25T04:49:13;25.10;;;6.00;;
45236;SDS011;30973;51.442;3.580;2024-01-25T04:51:41;27.42;;;6.43;;
45236;SDS011;30973;51.442;3.580;2024-01-25T04:54:08;22.85;;;6.65;;
45236;SDS011;30973;51.442;3.580;2024-01-25T04:56:39;24.25;;;5.85;;
45236;SDS011;30973;51.442;3.580;2024-01-25T04:59:06;26.88;;;6.30;;
45236;SDS011;30973;51.442;3.580;2024-01-25T05:01:34;24.20;;;5.38;;
45236;SDS011;30973;51.442;3.580;2024-01-25T05:04:01;23.23;;;5.43;;
45236;SDS011;30973;51.442;3.580;2024-01-25T05:06:30;25.08;;;6.00;;
45236;SDS011;30973;51.442;3.580;2024-01-25T05:08:57;20.95;;;5.13;;
45236;SDS011;30973;51.442;3.580;2024-01-25T05:11:25;22.55;;;5.13;;
45236;SDS011;30973;51.442;3.580;2024-01-25T05:13:53;21.42;;;4.53;;
45236;SDS011;30973;51.442;3.580;2024-01-25T05:16:20;20.35;;;5.43;;
45236;SDS011;30973;51.442;3.580;2024-01-25T05:18:48;18.50;;;5.65;;
45236;SDS011;30973;51.442;3.580;2024-01-25T05:21:16;21.77;;;4.45;;
45236;SDS011;30973;51.442;3.580;2024-01-25T05:23:43;24.30;;;5.05;;
45236;SDS011;30973;51.442;3.580;2024-01-25T05:26:11;19.52;;;5.25;;
45236;SDS011;30973;51.442;3.580;2024-01-25T05:28:39;22.65;;;5.57;;
45236;SDS011;30973;51.442;3.580;2024-01-25T05:31:06;18.13;;;4.93;;
45236;SDS011;30973;51.442;3.580;2024-01-25T05:33:39;26.92;;;5.65;;
45236;SDS011;30973;51.442;3.580;2024-01-25T05:36:07;19.10;;;5.13;;
45236;SDS011;30973;51.442;3.580;2024-01-25T05:38:35;19.30;;;4.50;;
45236;SDS011;30973;51.442;3.580;2024-01-25T05:41:03;18.75;;;5.57;;
45236;SDS011;30973;51.442;3.580;2024-01-25T05:43:35;22.15;;;5.47;;
45236;SDS011;30973;51.442;3.580;2024-01-25T05:46:02;18.33;;;4.80;;
45236;SDS011;30973;51.442;3.580;2024-01-25T05:48:30;22.25;;;5.60;;
45236;SDS011;30973;51.442;3.580;2024-01-25T05:50:58;26.73;;;6.18;;
45236;SDS011;30973;51.442;3.580;2024-01-25T05:53:25;19.48;;;5.70;;
45236;SDS011;30973;51.442;3.580;2024-01-25T05:55:53;21.90;;;4.95;;
45236;SDS011;30973;51.442;3.580;2024-01-25T05:58:20;23.40;;;5.55;;
45236;SDS011;30973;51.442;3.580;2024-01-25T06:00:48;27.52;;;5.45;;
45236;SDS011;30973;51.442;3.580;2024-01-25T06:03:16;27.92;;;6.35;;
45236;SDS011;30973;51.442;3.580;2024-01-25T06:05:43;21.30;;;6.22;;
45236;SDS011;30973;51.442;3.580;2024-01-25T06:08:11;23.80;;;6.10;;
45236;SDS011;30973;51.442;3.580;2024-01-25T06:10:39;22.00;;;6.18;;
45236;SDS011;30973;51.442;3.580;2024-01-25T06:13:06;17.23;;;5.45;;
45236;SDS011;30973;51.442;3.580;2024-01-25T06:15:34;20.02;;;6.57;;
45236;SDS011;30973;51.442;3.580;2024-01-25T06:18:02;24.00;;;5.68;;
45236;SDS011;30973;51.442;3.580;2024-01-25T06:20:29;26.42;;;6.43;;
45236;SDS011;30973;51.442;3.580;2024-01-25T06:23:05;21.23;;;5.97;;
45236;SDS011;30973;51.442;3.580;2024-01-25T06:25:33;27.05;;;6.03;;
45236;SDS011;30973;51.442;3.580;2024-01-25T06:28:01;23.10;;;5.35;;
45236;SDS011;30973;51.442;3.580;2024-01-25T06:30:30;17.08;;;5.43;;
45236;SDS011;30973;51.442;3.580;2024-01-25T06:32:57;24.05;;;6.13;;
45236;SDS011;30973;51.442;3.580;2024-01-25T06:35:25;25.92;;;6.18;;
45236;SDS011;30973;51.442;3.580;2024-01-25T06:37:53;22.52;;;6.78;;
45236;SDS011;30973;51.442;3.580;2024-01-25T06:40:20;26.27;;;5.80;;
45236;SDS011;30973;51.442;3.580;2024-01-25T06:42:48;19.60;;;5.47;;
45236;SDS011;30973;51.442;3.580;2024-01-25T06:45:15;29.42;;;6.93;;
45236;SDS011;30973;51.442;3.580;2024-01-25T06:47:43;22.63;;;5.80;;
45236;SDS011;30973;51.442;3.580;2024-01-25T06:50:11;24.02;;;6.00;;
45236;SDS011;30973;51.442;3.580;2024-01-25T06:52:39;22.88;;;6.60;;
45236;SDS011;30973;51.442;3.580;2024-01-25T06:55:06;21.42;;;6.53;;
45236;SDS011;30973;51.442;3.580;2024-01-25T06:57:34;24.77;;;5.47;;
45236;SDS011;30973;51.442;3.580;2024-01-25T07:00:01;22.77;;;6.65;;
45236;SDS011;30973;51.442;3.580;2024-01-25T07:02:29;23.55;;;6.40;;
45236;SDS011;30973;51.442;3.580;2024-01-25T07:04:58;24.08;;;5.22;;
45236;SDS011;30973;51.442;3.580;2024-01-25T07:07:26;23.17;;;5.68;;
45236;SDS011;30973;51.442;3.580;2024-01-25T07:09:53;22.83;;;6.00;;
45236;SDS011;30973;51.442;3.580;2024-01-25T07:12:21;29.42;;;7.50;;
45236;SDS011;30973;51.442;3.580;2024-01-25T07:14:48;24.52;;;6.32;;
45236;SDS011;30973;51.442;3.580;2024-01-25T07:17:16;20.25;;;5.97;;
45236;SDS011;30973;51.442;3.580;2024-01-25T07:19:44;27.88;;;6.32;;
45236;SDS011;30973;51.442;3.580;2024-01-25T07:22:11;23.42;;;6.00;;
45236;SDS011;30973;51.442;3.580;2024-01-25T07:24:40;22.25;;;6.22;;
45236;SDS011;30973;51.442;3.580;2024-01-25T07:27:08;30.20;;;6.43;;
45236;SDS011;30973;51.442;3.580;2024-01-25T07:29:36;27.45;;;6.60;;
45236;SDS011;30973;51.442;3.580;2024-01-25T07:32:04;23.48;;;6.68;;
45236;SDS011;30973;51.442;3.580;2024-01-25T07:34:31;22.85;;;6.18;;
45236;SDS011;30973;51.442;3.580;2024-01-25T07:36:59;24.48;;;5.95;;
45236;SDS011;30973;51.442;3.580;2024-01-25T07:39:27;19.38;;;6.38;;
45236;SDS011;30973;51.442;3.580;2024-01-25T07:41:54;24.98;;;6.60;;
45236;SDS011;30973;51.442;3.580;2024-01-25T07:44:21;17.42;;;5.75;;
45236;SDS011;30973;51.442;3.580;2024-01-25T07:46:49;23.38;;;6.72;;
45236;SDS011;30973;51.442;3.580;2024-01-25T07:49:17;24.90;;;7.03;;
45236;SDS011;30973;51.442;3.580;2024-01-25T07:51:45;25.90;;;6.75;;
45236;SDS011;30973;51.442;3.580;2024-01-25T07:54:14;27.80;;;6.70;;
45236;SDS011;30973;51.442;3.580;2024-01-25T07:56:42;24.38;;;6.50;;
45236;SDS011;30973;51.442;3.580;2024-01-25T07:59:09;23.75;;;6.47;;
45236;SDS011;30973;51.442;3.580;2024-01-25T08:01:36;26.38;;;6.63;;
45236;SDS011;30973;51.442;3.580;2024-01-25T08:04:04;21.67;;;6.30;;
45236;SDS011;30973;51.442;3.580;2024-01-25T08:06:32;17.75;;;6.47;;
45236;SDS011;30973;51.442;3.580;2024-01-25T08:09:00;26.40;;;6.50;;
45236;SDS011;30973;51.442;3.580;2024-01-25T08:11:27;20.58;;;7.13;;
45236;SDS011;30973;51.442;3.580;2024-01-25T08:13:55;26.80;;;5.90;;
45236;SDS011;30973;51.442;3.580;2024-01-25T08:16:22;26.17;;;6.65;;
45236;SDS011;30973;51.442;3.580;2024-01-25T08:18:50;25.92;;;6.43;;
45236;SDS011;30973;51.442;3.580;2024-01-25T08:21:18;27.48;;;6.63;;
45236;SDS011;30973;51.442;3.580;2024-01-25T08:23:46;31.73;;;6.95;;
45236;SDS011;30973;51.442;3.580;2024-01-25T08:26:13;24.27;;;6.60;;
45236;SDS011;30973;51.442;3.580;2024-01-25T08:28:41;23.48;;;6.35;;
45236;SDS011;30973;51.442;3.580;2024-01-25T08:31:10;24.52;;;6.65;;
45236;SDS011;30973;51.442;3.580;2024-01-25T08:33:39;25.30;;;6.45;;
45236;SDS011;30973;51.442;3.580;2024-01-25T08:36:18;25.33;;;7.15;;
45236;SDS011;30973;51.442;3.580;2024-01-25T08:38:46;23.42;;;6.78;;
45236;SDS011;30973;51.442;3.580;2024-01-25T08:41:14;28.95;;;7.65;;
45236;SDS011;30973;51.442;3.580;2024-01-25T08:43:45;28.48;;;7.45;;
45236;SDS011;30973;51.442;3.580;2024-01-25T08:46:13;20.58;;;6.50;;
45236;SDS011;30973;51.442;3.580;2024-01-25T08:48:42;26.45;;;8.70;;
45236;SDS011;30973;51.442;3.580;2024-01-25T08:51:11;24.33;;;7.05;;
45236;SDS011;30973;51.442;3.580;2024-01-25T08:53:38;32.67;;;8.07;;
45236;SDS011;30973;51.442;3.580;2024-01-25T08:56:06;21.08;;;6.82;;
45236;SDS011;30973;51.442;3.580;2024-01-25T08:58:33;30.85;;;7.32;;
45236;SDS011;30973;51.442;3.580;2024-01-25T09:01:01;23.80;;;7.40;;
45236;SDS011;30973;51.442;3.580;2024-01-25T09:03:28;30.83;;;8.05;;
45236;SDS011;30973;51.442;3.580;2024-01-25T09:05:56;26.05;;;7.15;;
45236;SDS011;30973;51.442;3.580;2024-01-25T09:08:24;22.88;;;8.00;;
45236;SDS011;30973;51.442;3.580;2024-01-25T09:10:51;36.92;;;9.18;;
45236;SDS011;30973;51.442;3.580;2024-01-25T09:13:19;24.92;;;7.80;;
45236;SDS011;30973;51.442;3.580;2024-01-25T09:15:46;30.17;;;7.88;;
45236;SDS011;30973;51.442;3.580;2024-01-25T09:18:15;26.65;;;7.28;;
45236;SDS011;30973;51.442;3.580;2024-01-25T09:20:42;25.02;;;8.63;;
45236;SDS011;30973;51.442;3.580;2024-01-25T09:23:14;27.20;;;8.65;;
45236;SDS011;30973;51.442;3.580;2024-01-25T09:25:44;28.33;;;9.43;;
45236;SDS011;30973;51.442;3.580;2024-01-25T09:28:12;24.75;;;8.95;;
45236;SDS011;30973;51.442;3.580;2024-01-25T09:30:40;27.38;;;9.88;;
45236;SDS011;30973;51.442;3.580;2024-01-25T09:33:07;23.50;;;9.90;;
45236;SDS011;30973;51.442;3.580;2024-01-25T09:35:35;20.20;;;10.13;;
45236;SDS011;30973;51.442;3.580;2024-01-25T09:38:03;22.00;;;11.25;;
45236;SDS011;30973;51.442;3.580;2024-01-25T09:40:31;19.33;;;10.60;;
45236;SDS011;30973;51.442;3.580;2024-01-25T09:43:00;21.80;;;10.48;;
45236;SDS011;30973;51.442;3.580;2024-01-25T09:45:27;17.33;;;9.75;;
45236;SDS011;30973;51.442;3.580;2024-01-25T09:47:55;16.88;;;10.48;;
45236;SDS011;30973;51.442;3.580;2024-01-25T09:50:23;16.85;;;10.23;;
45236;SDS011;30973;51.442;3.580;2024-01-25T09:52:53;16.45;;;9.95;;
45236;SDS011;30973;51.442;3.580;2024-01-25T09:55:24;14.55;;;8.82;;
45236;SDS011;30973;51.442;3.580;2024-01-25T09:57:54;15.57;;;9.57;;
45236;SDS011;30973;51.442;3.580;2024-01-25T10:00:24;15.15;;;9.40;;
45236;SDS011;30973;51.442;3.580;2024-01-25T10:02:52;14.10;;;9.32;;
45236;SDS011;30973;51.442;3.580;2024-01-25T10:05:19;14.07;;;8.82;;
45236;SDS011;30973;51.442;3.580;2024-01-25T10:07:47;15.30;;;9.23;;
45236;SDS011;30973;51.442;3.580;2024-01-25T10:10:15;15.32;;;9.10;;
45236;SDS011;30973;51.442;3.580;2024-01-25T10:12:43;15.48;;;9.43;;
45236;SDS011;30973;51.442;3.580;2024-01-25T10:15:10;16.58;;;9.75;;
45236;SDS011;30973;51.442;3.580;2024-01-25T10:17:38;14.73;;;9.20;;
45236;SDS011;30973;51.442;3.580;2024-01-25T10:20:26;17.58;;;9.48;;
45236;SDS011;30973;51.442;3.580;2024-01-25T10:22:57;15.35;;;9.95;;
45236;SDS011;30973;51.442;3.580;2024-01-25T10:25:27;16.63;;;9.70;;
45236;SDS011;30973;51.442;3.580;2024-01-25T10:27:55;17.95;;;9.90;;
45236;SDS011;30973;51.442;3.580;2024-01-25T10:30:23;19.77;;;11.18;;
45236;SDS011;30973;51.442;3.580;2024-01-25T10:32:51;19.38;;;10.80;;
45236;SDS011;30973;51.442;3.580;2024-01-25T10:35:19;18.05;;;10.45;;
45236;SDS011;30973;51.442;3.580;2024-01-25T10:37:50;20.80;;;10.40;;
45236;SDS011;30973;51.442;3.580;2024-01-25T10:40:18;19.38;;;11.05;;
45236;SDS011;30973;51.442;3.580;2024-01-25T10:42:46;17.50;;;10.75;;
45236;SDS011;30973;51.442;3.580;2024-01-25T10:45:14;19.38;;;10.98;;
45236;SDS011;30973;51.442;3.580;2024-01-25T10:47:42;21.23;;;10.13;;
45236;SDS011;30973;51.442;3.580;2024-01-25T10:50:11;21.15;;;10.35;;
45236;SDS011;30973;51.442;3.580;2024-01-25T10:52:40;19.55;;;10.07;;
45236;SDS011;30973;51.442;3.580;2024-01-25T10:55:08;19.80;;;11.43;;
45236;SDS011;30973;51.442;3.580;2024-01-25T10:57:36;20.20;;;10.98;;
45236;SDS011;30973;51.442;3.580;2024-01-25T11:00:11;22.35;;;10.98;;
45236;SDS011;30973;51.442;3.580;2024-01-25T11:02:39;19.33;;;11.07;;
45236;SDS011;30973;51.442;3.580;2024-01-25T11:05:14;23.70;;;11.52;;
45236;SDS011;30973;51.442;3.580;2024-01-25T11:10:12;20.52;;;10.13;;
45236;SDS011;30973;51.442;3.580;2024-01-25T11:12:57;24.92;;;10.20;;
45236;SDS011;30973;51.442;3.580;2024-01-25T11:15:32;22.75;;;10.20;;
45236;SDS011;30973;51.442;3.580;2024-01-25T11:18:00;25.83;;;11.18;;
45236;SDS011;30973;51.442;3.580;2024-01-25T11:20:29;18.92;;;10.10;;
45236;SDS011;30973;51.442;3.580;2024-01-25T11:23:02;22.15;;;11.00;;
45236;SDS011;30973;51.442;3.580;2024-01-25T11:25:31;21.92;;;10.10;;
45236;SDS011;30973;51.442;3.580;2024-01-25T11:28:00;23.38;;;10.40;;
45236;SDS011;30973;51.442;3.580;2024-01-25T11:30:28;20.75;;;10.48;;
45236;SDS011;30973;51.442;3.580;2024-01-25T11:32:56;19.25;;;11.13;;
45236;SDS011;30973;51.442;3.580;2024-01-25T11:35:24;17.85;;;9.57;;
45236;SDS011;30973;51.442;3.580;2024-01-25T11:37:52;18.10;;;9.98;;
45236;SDS011;30973;51.442;3.580;2024-01-25T11:40:20;22.75;;;10.20;;
45236;SDS011;30973;51.442;3.580;2024-01-25T11:42:48;19.92;;;9.48;;
45236;SDS011;30973;51.442;3.580;2024-01-25T11:45:16;18.40;;;9.40;;
45236;SDS011;30973;51.442;3.580;2024-01-25T11:47:44;21.60;;;10.02;;
45236;SDS011;30973;51.442;3.580;2024-01-25T11:50:12;22.13;;;10.68;;
45236;SDS011;30973;51.442;3.580;2024-01-25T11:52:40;20.30;;;11.48;;
45236;SDS011;30973;51.442;3.580;2024-01-25T11:55:08;17.98;;;9.90;;
45236;SDS011;30973;51.442;3.580;2024-01-25T11:57:37;21.02;;;10.93;;
45236;SDS011;30973;51.442;3.580;2024-01-25T12:00:05;22.20;;;10.27;;
45236;SDS011;30973;51.442;3.580;2024-01-25T12:02:36;21.23;;;11.48;;
45236;SDS011;30973;51.442;3.580;2024-01-25T12:05:04;22.83;;;11.20;;
45236;SDS011;30973;51.442;3.580;2024-01-25T12:07:33;23.92;;;10.73;;
45236;SDS011;30973;51.442;3.580;2024-01-25T12:10:04;20.27;;;11.13;;
45236;SDS011;30973;51.442;3.580;2024-01-25T12:12:32;20.42;;;10.30;;
45236;SDS011;30973;51.442;3.580;2024-01-25T12:15:00;17.50;;;9.65;;
45236;SDS011;30973;51.442;3.580;2024-01-25T12:17:28;19.10;;;9.73;;
45236;SDS011;30973;51.442;3.580;2024-01-25T12:19:59;21.70;;;10.48;;
45236;SDS011;30973;51.442;3.580;2024-01-25T12:22:27;16.65;;;9.10;;
45236;SDS011;30973;51.442;3.580;2024-01-25T12:24:58;18.48;;;10.18;;
45236;SDS011;30973;51.442;3.580;2024-01-25T12:27:27;17.33;;;8.90;;
45236;SDS011;30973;51.442;3.580;2024-01-25T12:29:54;16.88;;;8.95;;
45236;SDS011;30973;51.442;3.580;2024-01-25T12:32:22;14.15;;;8.48;;
45236;SDS011;30973;51.442;3.580;2024-01-25T12:34:59;12.95;;;7.68;;
45236;SDS011;30973;51.442;3.580;2024-01-25T12:37:27;14.55;;;7.82;;
45236;SDS011;30973;51.442;3.580;2024-01-25T12:39:56;15.85;;;7.88;;
45236;SDS011;30973;51.442;3.580;2024-01-25T12:42:24;14.32;;;7.93;;
45236;SDS011;30973;51.442;3.580;2024-01-25T12:44:52;13.68;;;6.80;;
45236;SDS011;30973;51.442;3.580;2024-01-25T12:47:23;10.85;;;7.00;;
45236;SDS011;30973;51.442;3.580;2024-01-25T12:49:51;11.65;;;6.88;;
45236;SDS011;30973;51.442;3.580;2024-01-25T12:52:18;13.40;;;7.53;;
45236;SDS011;30973;51.442;3.580;2024-01-25T12:54:46;10.25;;;6.97;;
45236;SDS011;30973;51.442;3.580;2024-01-25T12:57:13;11.20;;;8.13;;
45236;SDS011;30973;51.442;3.580;2024-01-25T12:59:41;11.38;;;6.65;;
45236;SDS011;30973;51.442;3.580;2024-01-25T13:02:08;11.30;;;6.70;;
45236;SDS011;30973;51.442;3.580;2024-01-25T13:04:36;10.25;;;6.47;;
45236;SDS011;30973;51.442;3.580;2024-01-25T13:07:04;12.13;;;7.70;;
45236;SDS011;30973;51.442;3.580;2024-01-25T13:09:32;13.57;;;7.53;;
45236;SDS011;30973;51.442;3.580;2024-01-25T13:12:00;14.27;;;6.50;;
45236;SDS011;30973;51.442;3.580;2024-01-25T13:14:28;7.75;;;5.85;;
45236;SDS011;30973;51.442;3.580;2024-01-25T13:16:56;10.68;;;6.38;;
45236;SDS011;30973;51.442;3.580;2024-01-25T13:19:23;9.55;;;6.65;;
45236;SDS011;30973;51.442;3.580;2024-01-25T13:21:51;10.40;;;6.78;;
45236;SDS011;30973;51.442;3.580;2024-01-25T13:24:19;8.23;;;6.07;;
45236;SDS011;30973;51.442;3.580;2024-01-25T13:26:46;9.02;;;6.78;;
45236;SDS011;30973;51.442;3.580;2024-01-25T13:29:14;8.98;;;6.35;;
45236;SDS011;30973;51.442;3.580;2024-01-25T13:31:41;9.73;;;6.63;;
45236;SDS011;30973;51.442;3.580;2024-01-25T13:34:09;8.48;;;6.35;;
45236;SDS011;30973;51.442;3.580;2024-01-25T13:36:37;8.23;;;6.47;;
45236;SDS011;30973;51.442;3.580;2024-01-25T13:39:04;7.97;;;6.82;;
45236;SDS011;30973;51.442;3.580;2024-01-25T13:41:32;9.02;;;7.03;;
45236;SDS011;30973;51.442;3.580;2024-01-25T13:44:00;9.55;;;7.10;;
45236;SDS011;30973;51.442;3.580;2024-01-25T13:46:27;9.13;;;7.72;;
45236;SDS011;30973;51.442;3.580;2024-01-25T13:48:55;9.77;;;8.05;;
45236;SDS011;30973;51.442;3.580;2024-01-25T13:51:22;9.45;;;8.43;;
45236;SDS011;30973;51.442;3.580;2024-01-25T13:53:50;11.65;;;8.80;;
45236;SDS011;30973;51.442;3.580;2024-01-25T13:56:17;10.75;;;9.48;;
45236;SDS011;30973;51.442;3.580;2024-01-25T13:58:45;12.48;;;10.82;;
45236;SDS011;30973;51.442;3.580;2024-01-25T14:01:12;13.48;;;11.00;;
45236;SDS011;30973;51.442;3.580;2024-01-25T14:03:40;12.43;;;10.68;;
45236;SDS011;30973;51.442;3.580;2024-01-25T14:06:11;17.52;;;11.55;;
45236;SDS011;30973;51.442;3.580;2024-01-25T14:08:39;14.40;;;11.82;;
45236;SDS011;30973;51.442;3.580;2024-01-25T14:11:07;15.20;;;11.43;;
45236;SDS011;30973;51.442;3.580;2024-01-25T14:13:34;15.15;;;12.57;;
45236;SDS011;30973;51.442;3.580;2024-01-25T14:16:02;16.02;;;12.55;;
45236;SDS011;30973;51.442;3.580;2024-01-25T14:18:35;15.32;;;12.05;;
45236;SDS011;30973;51.442;3.580;2024-01-25T14:21:03;17.50;;;12.45;;
45236;SDS011;30973;51.442;3.580;2024-01-25T14:23:32;18.27;;;13.70;;
45236;SDS011;30973;51.442;3.580;2024-01-25T14:26:02;15.00;;;12.52;;
45236;SDS011;30973;51.442;3.580;2024-01-25T14:28:29;15.45;;;12.95;;
45236;SDS011;30973;51.442;3.580;2024-01-25T14:30:57;18.55;;;14.43;;
45236;SDS011;30973;51.442;3.580;2024-01-25T14:33:27;20.67;;;13.90;;
45236;SDS011;30973;51.442;3.580;2024-01-25T14:35:54;19.58;;;14.43;;
45236;SDS011;30973;51.442;3.580;2024-01-25T14:38:22;25.27;;;15.43;;
45236;SDS011;30973;51.442;3.580;2024-01-25T14:40:49;21.20;;;14.82;;
45236;SDS011;30973;51.442;3.580;2024-01-25T14:43:25;21.88;;;14.15;;